sensor_id;sensor_type;location;lat;lon;timestamp;P1;durP1;ratioP1;P2;durP2;ratioP2
62788;SDS011;66401;42.016;21.454;2023-09-19T00:00:19;16.20;;;11.27;;
62788;SDS011;66401;42.016;21.454;2023-09-19T00:02:54;18.73;;;11.43;;
62788;SDS011;66401;42.016;21.454;2023-09-19T00:05:24;13.07;;;9.70;;
62788;SDS011;66401;42.016;21.454;2023-09-19T00:07:53;17.10;;;9.93;;
62788;SDS011;66401;42.016;21.454;2023-09-19T00:10:22;15.43;;;9.33;;
62788;SDS011;66401;42.016;21.454;2023-09-19T00:12:50;16.20;;;10.37;;
62788;SDS011;66401;42.016;21.454;2023-09-19T00:15:24;18.83;;;10.23;;
62788;SDS011;66401;42.016;21.454;2023-09-19T00:17:56;15.83;;;10.17;;
62788;SDS011;66401;42.016;21.454;2023-09-19T00:20:22;16.03;;;9.80;;
62788;SDS011;66401;42.016;21.454;2023-09-19T00:22:51;13.40;;;10.50;;
62788;SDS011;66401;42.016;21.454;2023-09-19T00:25:17;13.00;;;9.60;;
62788;SDS011;66401;42.016;21.454;2023-09-19T00:27:42;12.73;;;8.67;;
62788;SDS011;66401;42.016;21.454;2023-09-19T00:30:10;14.03;;;8.90;;
62788;SDS011;66401;42.016;21.454;2023-09-19T00:32:41;15.17;;;10.27;;
62788;SDS011;66401;42.016;21.454;2023-09-19T00:35:08;16.80;;;9.50;;
62788;SDS011;66401;42.016;21.454;2023-09-19T00:37:37;12.87;;;9.70;;
62788;SDS011;66401;42.016;21.454;2023-09-19T00:40:05;13.60;;;9.90;;
62788;SDS011;66401;42.016;21.454;2023-09-19T00:42:32;11.50;;;8.37;;
62788;SDS011;66401;42.016;21.454;2023-09-19T00:44:59;13.50;;;9.33;;
62788;SDS011;66401;42.016;21.454;2023-09-19T00:47:27;11.27;;;9.00;;
62788;SDS011;66401;42.016;21.454;2023-09-19T00:49:54;13.53;;;8.90;;
62788;SDS011;66401;42.016;21.454;2023-09-19T00:52:21;11.03;;;8.90;;
62788;SDS011;66401;42.016;21.454;2023-09-19T00:54:49;13.77;;;8.93;;
62788;SDS011;66401;42.016;21.454;2023-09-19T00:57:15;13.63;;;9.30;;
62788;SDS011;66401;42.016;21.454;2023-09-19T00:59:44;13.67;;;8.60;;
62788;SDS011;66401;42.016;21.454;2023-09-19T01:02:10;12.83;;;9.60;;
62788;SDS011;66401;42.016;21.454;2023-09-19T01:04:39;11.37;;;9.43;;
62788;SDS011;66401;42.016;21.454;2023-09-19T01:07:05;12.23;;;9.43;;
62788;SDS011;66401;42.016;21.454;2023-09-19T01:09:33;17.73;;;9.00;;
62788;SDS011;66401;42.016;21.454;2023-09-19T01:12:00;12.57;;;9.13;;
62788;SDS011;66401;42.016;21.454;2023-09-19T01:14:34;11.90;;;8.50;;
62788;SDS011;66401;42.016;21.454;2023-09-19T01:22:30;11.83;;;9.27;;
62788;SDS011;66401;42.016;21.454;2023-09-19T01:30:35;10.43;;;7.97;;
62788;SDS011;66401;42.016;21.454;2023-09-19T01:33:08;14.80;;;9.23;;
62788;SDS011;66401;42.016;21.454;2023-09-19T01:35:37;12.80;;;8.37;;
62788;SDS011;66401;42.016;21.454;2023-09-19T01:38:04;15.80;;;9.97;;
62788;SDS011;66401;42.016;21.454;2023-09-19T01:40:41;12.67;;;9.30;;
62788;SDS011;66401;42.016;21.454;2023-09-19T01:43:12;12.50;;;9.13;;
62788;SDS011;66401;42.016;21.454;2023-09-19T01:51:00;14.17;;;9.63;;
62788;SDS011;66401;42.016;21.454;2023-09-19T01:53:28;13.40;;;9.37;;
62788;SDS011;66401;42.016;21.454;2023-09-19T01:56:16;11.30;;;8.73;;
62788;SDS011;66401;42.016;21.454;2023-09-19T01:58:51;11.00;;;9.27;;
62788;SDS011;66401;42.016;21.454;2023-09-19T02:01:22;12.93;;;8.77;;
62788;SDS011;66401;42.016;21.454;2023-09-19T02:03:49;11.23;;;8.53;;
62788;SDS011;66401;42.016;21.454;2023-09-19T02:06:16;11.13;;;9.40;;
62788;SDS011;66401;42.016;21.454;2023-09-19T02:08:43;9.17;;;8.20;;
62788;SDS011;66401;42.016;21.454;2023-09-19T02:11:10;11.60;;;8.33;;
62788;SDS011;66401;42.016;21.454;2023-09-19T02:13:36;11.57;;;8.70;;
62788;SDS011;66401;42.016;21.454;2023-09-19T02:16:03;11.03;;;8.83;;
62788;SDS011;66401;42.016;21.454;2023-09-19T02:18:29;11.20;;;8.73;;
62788;SDS011;66401;42.016;21.454;2023-09-19T02:20:55;11.73;;;8.70;;
62788;SDS011;66401;42.016;21.454;2023-09-19T02:23:23;10.73;;;8.80;;
62788;SDS011;66401;42.016;21.454;2023-09-19T02:25:53;10.73;;;8.77;;
62788;SDS011;66401;42.016;21.454;2023-09-19T02:28:19;12.03;;;8.63;;
62788;SDS011;66401;42.016;21.454;2023-09-19T02:30:47;12.80;;;8.83;;
62788;SDS011;66401;42.016;21.454;2023-09-19T02:33:14;10.90;;;8.63;;
62788;SDS011;66401;42.016;21.454;2023-09-19T02:35:40;15.90;;;9.17;;
62788;SDS011;66401;42.016;21.454;2023-09-19T02:38:05;11.63;;;8.17;;
62788;SDS011;66401;42.016;21.454;2023-09-19T02:40:32;11.60;;;8.33;;
62788;SDS011;66401;42.016;21.454;2023-09-19T02:43:01;11.33;;;8.53;;
62788;SDS011;66401;42.016;21.454;2023-09-19T02:45:27;11.20;;;8.40;;
62788;SDS011;66401;42.016;21.454;2023-09-19T02:47:53;12.03;;;9.17;;
62788;SDS011;66401;42.016;21.454;2023-09-19T02:50:20;13.00;;;8.60;;
62788;SDS011;66401;42.016;21.454;2023-09-19T02:52:46;11.17;;;8.57;;
62788;SDS011;66401;42.016;21.454;2023-09-19T02:55:14;12.67;;;9.87;;
62788;SDS011;66401;42.016;21.454;2023-09-19T02:57:49;13.77;;;9.97;;
62788;SDS011;66401;42.016;21.454;2023-09-19T03:00:16;14.77;;;9.33;;
62788;SDS011;66401;42.016;21.454;2023-09-19T03:02:46;12.93;;;9.43;;
62788;SDS011;66401;42.016;21.454;2023-09-19T03:05:13;15.43;;;9.77;;
62788;SDS011;66401;42.016;21.454;2023-09-19T03:07:38;12.87;;;8.67;;
62788;SDS011;66401;42.016;21.454;2023-09-19T03:10:05;10.07;;;8.57;;
62788;SDS011;66401;42.016;21.454;2023-09-19T03:12:32;13.70;;;9.07;;
62788;SDS011;66401;42.016;21.454;2023-09-19T03:14:58;10.60;;;8.77;;
62788;SDS011;66401;42.016;21.454;2023-09-19T03:17:24;16.97;;;10.03;;
62788;SDS011;66401;42.016;21.454;2023-09-19T03:19:50;14.07;;;9.43;;
62788;SDS011;66401;42.016;21.454;2023-09-19T03:22:15;10.57;;;8.70;;
62788;SDS011;66401;42.016;21.454;2023-09-19T03:24:41;11.90;;;8.60;;
62788;SDS011;66401;42.016;21.454;2023-09-19T03:27:11;10.60;;;8.70;;
62788;SDS011;66401;42.016;21.454;2023-09-19T03:29:39;13.77;;;9.33;;
62788;SDS011;66401;42.016;21.454;2023-09-19T03:32:05;11.90;;;8.60;;
62788;SDS011;66401;42.016;21.454;2023-09-19T03:34:31;10.47;;;8.50;;
62788;SDS011;66401;42.016;21.454;2023-09-19T03:36:56;14.20;;;9.93;;
62788;SDS011;66401;42.016;21.454;2023-09-19T03:39:22;12.50;;;9.37;;
62788;SDS011;66401;42.016;21.454;2023-09-19T03:41:47;14.07;;;9.50;;
62788;SDS011;66401;42.016;21.454;2023-09-19T03:44:14;17.40;;;10.87;;
62788;SDS011;66401;42.016;21.454;2023-09-19T03:46:40;15.07;;;11.80;;
62788;SDS011;66401;42.016;21.454;2023-09-19T03:49:05;17.07;;;11.77;;
62788;SDS011;66401;42.016;21.454;2023-09-19T03:51:31;17.70;;;11.77;;
62788;SDS011;66401;42.016;21.454;2023-09-19T03:53:57;15.90;;;12.13;;
62788;SDS011;66401;42.016;21.454;2023-09-19T03:56:22;14.30;;;11.30;;
62788;SDS011;66401;42.016;21.454;2023-09-19T03:58:48;16.47;;;11.67;;
62788;SDS011;66401;42.016;21.454;2023-09-19T04:01:14;14.17;;;10.87;;
62788;SDS011;66401;42.016;21.454;2023-09-19T04:03:39;14.33;;;11.40;;
62788;SDS011;66401;42.016;21.454;2023-09-19T04:06:15;14.33;;;11.37;;
62788;SDS011;66401;42.016;21.454;2023-09-19T04:08:41;13.67;;;10.37;;
62788;SDS011;66401;42.016;21.454;2023-09-19T04:11:07;16.67;;;10.33;;
62788;SDS011;66401;42.016;21.454;2023-09-19T04:13:32;16.73;;;11.43;;
62788;SDS011;66401;42.016;21.454;2023-09-19T04:15:58;13.97;;;10.57;;
62788;SDS011;66401;42.016;21.454;2023-09-19T04:18:24;16.50;;;11.23;;
62788;SDS011;66401;42.016;21.454;2023-09-19T04:20:50;16.83;;;13.13;;
62788;SDS011;66401;42.016;21.454;2023-09-19T04:23:16;15.47;;;11.87;;
62788;SDS011;66401;42.016;21.454;2023-09-19T04:25:42;18.67;;;13.97;;
62788;SDS011;66401;42.016;21.454;2023-09-19T04:28:08;14.13;;;11.43;;
62788;SDS011;66401;42.016;21.454;2023-09-19T04:30:36;15.70;;;11.30;;
62788;SDS011;66401;42.016;21.454;2023-09-19T04:33:02;12.47;;;10.43;;
62788;SDS011;66401;42.016;21.454;2023-09-19T04:35:28;15.50;;;11.30;;
62788;SDS011;66401;42.016;21.454;2023-09-19T04:37:56;16.27;;;10.33;;
62788;SDS011;66401;42.016;21.454;2023-09-19T04:40:22;11.47;;;10.07;;
62788;SDS011;66401;42.016;21.454;2023-09-19T04:42:56;13.73;;;10.00;;
62788;SDS011;66401;42.016;21.454;2023-09-19T04:45:24;14.10;;;9.83;;
62788;SDS011;66401;42.016;21.454;2023-09-19T04:47:51;13.33;;;10.17;;
62788;SDS011;66401;42.016;21.454;2023-09-19T04:50:18;16.20;;;10.40;;
62788;SDS011;66401;42.016;21.454;2023-09-19T04:52:44;16.30;;;10.07;;
62788;SDS011;66401;42.016;21.454;2023-09-19T04:55:13;14.43;;;10.17;;
62788;SDS011;66401;42.016;21.454;2023-09-19T04:57:45;16.73;;;10.93;;
62788;SDS011;66401;42.016;21.454;2023-09-19T05:00:15;16.70;;;11.53;;
62788;SDS011;66401;42.016;21.454;2023-09-19T05:02:44;17.77;;;11.70;;
62788;SDS011;66401;42.016;21.454;2023-09-19T05:05:10;19.07;;;12.63;;
62788;SDS011;66401;42.016;21.454;2023-09-19T05:07:38;19.23;;;12.40;;
62788;SDS011;66401;42.016;21.454;2023-09-19T05:10:04;20.23;;;12.13;;
62788;SDS011;66401;42.016;21.454;2023-09-19T05:12:32;21.90;;;12.07;;
62788;SDS011;66401;42.016;21.454;2023-09-19T05:15:01;18.23;;;11.67;;
62788;SDS011;66401;42.016;21.454;2023-09-19T05:17:27;23.80;;;11.43;;
62788;SDS011;66401;42.016;21.454;2023-09-19T05:19:57;15.67;;;11.03;;
62788;SDS011;66401;42.016;21.454;2023-09-19T05:22:38;19.00;;;12.23;;
62788;SDS011;66401;42.016;21.454;2023-09-19T05:25:06;17.60;;;11.87;;
62788;SDS011;66401;42.016;21.454;2023-09-19T05:27:32;14.23;;;10.70;;
62788;SDS011;66401;42.016;21.454;2023-09-19T05:29:58;18.17;;;11.40;;
62788;SDS011;66401;42.016;21.454;2023-09-19T05:32:24;16.70;;;11.40;;
62788;SDS011;66401;42.016;21.454;2023-09-19T05:34:50;17.40;;;11.23;;
62788;SDS011;66401;42.016;21.454;2023-09-19T05:37:19;17.87;;;11.97;;
62788;SDS011;66401;42.016;21.454;2023-09-19T05:39:44;17.47;;;12.17;;
62788;SDS011;66401;42.016;21.454;2023-09-19T05:42:10;17.13;;;12.13;;
62788;SDS011;66401;42.016;21.454;2023-09-19T05:44:35;21.00;;;13.63;;
62788;SDS011;66401;42.016;21.454;2023-09-19T05:47:02;22.40;;;14.23;;
62788;SDS011;66401;42.016;21.454;2023-09-19T05:49:30;19.53;;;13.47;;
62788;SDS011;66401;42.016;21.454;2023-09-19T05:51:56;22.37;;;12.77;;
62788;SDS011;66401;42.016;21.454;2023-09-19T05:54:21;18.60;;;13.20;;
62788;SDS011;66401;42.016;21.454;2023-09-19T05:56:47;23.20;;;13.57;;
62788;SDS011;66401;42.016;21.454;2023-09-19T05:59:14;27.80;;;14.20;;
62788;SDS011;66401;42.016;21.454;2023-09-19T06:01:41;20.27;;;13.40;;
62788;SDS011;66401;42.016;21.454;2023-09-19T06:04:07;19.40;;;13.30;;
62788;SDS011;66401;42.016;21.454;2023-09-19T06:06:33;20.00;;;11.80;;
62788;SDS011;66401;42.016;21.454;2023-09-19T06:09:01;19.17;;;12.60;;
62788;SDS011;66401;42.016;21.454;2023-09-19T06:11:27;21.50;;;12.97;;
62788;SDS011;66401;42.016;21.454;2023-09-19T06:13:54;23.77;;;12.77;;
62788;SDS011;66401;42.016;21.454;2023-09-19T06:16:20;19.83;;;13.33;;
62788;SDS011;66401;42.016;21.454;2023-09-19T06:18:45;23.40;;;13.10;;
62788;SDS011;66401;42.016;21.454;2023-09-19T06:21:11;22.60;;;13.93;;
62788;SDS011;66401;42.016;21.454;2023-09-19T06:23:37;25.13;;;12.43;;
62788;SDS011;66401;42.016;21.454;2023-09-19T06:26:02;20.73;;;12.37;;
62788;SDS011;66401;42.016;21.454;2023-09-19T06:28:31;21.23;;;12.00;;
62788;SDS011;66401;42.016;21.454;2023-09-19T06:30:58;16.47;;;10.40;;
62788;SDS011;66401;42.016;21.454;2023-09-19T06:33:24;18.23;;;11.47;;
62788;SDS011;66401;42.016;21.454;2023-09-19T06:35:50;16.90;;;11.30;;
62788;SDS011;66401;42.016;21.454;2023-09-19T06:38:24;12.93;;;9.83;;
62788;SDS011;66401;42.016;21.454;2023-09-19T06:40:49;17.00;;;11.27;;
62788;SDS011;66401;42.016;21.454;2023-09-19T06:43:15;17.97;;;11.53;;
62788;SDS011;66401;42.016;21.454;2023-09-19T06:45:40;17.67;;;11.13;;
62788;SDS011;66401;42.016;21.454;2023-09-19T06:48:06;17.70;;;11.07;;
62788;SDS011;66401;42.016;21.454;2023-09-19T06:50:32;15.07;;;10.90;;
62788;SDS011;66401;42.016;21.454;2023-09-19T06:52:59;16.40;;;11.53;;
62788;SDS011;66401;42.016;21.454;2023-09-19T06:55:25;16.40;;;10.83;;
62788;SDS011;66401;42.016;21.454;2023-09-19T06:57:56;18.47;;;11.83;;
62788;SDS011;66401;42.016;21.454;2023-09-19T07:00:21;16.13;;;10.90;;
62788;SDS011;66401;42.016;21.454;2023-09-19T07:05:29;23.17;;;11.70;;
62788;SDS011;66401;42.016;21.454;2023-09-19T07:07:56;16.93;;;11.90;;
62788;SDS011;66401;42.016;21.454;2023-09-19T07:10:26;17.10;;;11.43;;
62788;SDS011;66401;42.016;21.454;2023-09-19T07:13:02;14.93;;;9.97;;
62788;SDS011;66401;42.016;21.454;2023-09-19T07:15:29;14.67;;;10.07;;
62788;SDS011;66401;42.016;21.454;2023-09-19T07:18:00;18.57;;;10.03;;
62788;SDS011;66401;42.016;21.454;2023-09-19T07:20:26;15.73;;;11.07;;
62788;SDS011;66401;42.016;21.454;2023-09-19T07:22:52;23.77;;;11.83;;
62788;SDS011;66401;42.016;21.454;2023-09-19T07:25:20;19.23;;;11.57;;
62788;SDS011;66401;42.016;21.454;2023-09-19T07:27:45;16.33;;;10.83;;
62788;SDS011;66401;42.016;21.454;2023-09-19T07:30:11;22.53;;;11.70;;
62788;SDS011;66401;42.016;21.454;2023-09-19T07:32:37;21.03;;;10.83;;
62788;SDS011;66401;42.016;21.454;2023-09-19T07:35:04;16.73;;;9.90;;
62788;SDS011;66401;42.016;21.454;2023-09-19T07:37:31;16.03;;;9.97;;
62788;SDS011;66401;42.016;21.454;2023-09-19T07:40:02;14.40;;;9.00;;
62788;SDS011;66401;42.016;21.454;2023-09-19T07:42:35;12.40;;;9.77;;
62788;SDS011;66401;42.016;21.454;2023-09-19T07:45:02;16.10;;;9.67;;
62788;SDS011;66401;42.016;21.454;2023-09-19T07:47:28;12.63;;;8.27;;
62788;SDS011;66401;42.016;21.454;2023-09-19T07:49:55;12.43;;;8.47;;
62788;SDS011;66401;42.016;21.454;2023-09-19T07:52:21;9.30;;;7.47;;
62788;SDS011;66401;42.016;21.454;2023-09-19T07:54:48;10.90;;;7.17;;
62788;SDS011;66401;42.016;21.454;2023-09-19T07:57:14;11.10;;;8.37;;
62788;SDS011;66401;42.016;21.454;2023-09-19T07:59:40;12.43;;;8.00;;
62788;SDS011;66401;42.016;21.454;2023-09-19T08:02:07;10.93;;;7.33;;
62788;SDS011;66401;42.016;21.454;2023-09-19T08:04:43;11.17;;;7.87;;
62788;SDS011;66401;42.016;21.454;2023-09-19T08:07:14;10.17;;;7.90;;
62788;SDS011;66401;42.016;21.454;2023-09-19T08:09:39;7.83;;;7.00;;
62788;SDS011;66401;42.016;21.454;2023-09-19T08:12:06;9.30;;;7.20;;
62788;SDS011;66401;42.016;21.454;2023-09-19T08:14:35;12.10;;;7.70;;
62788;SDS011;66401;42.016;21.454;2023-09-19T08:17:02;10.50;;;7.87;;
62788;SDS011;66401;42.016;21.454;2023-09-19T08:19:28;12.20;;;8.03;;
62788;SDS011;66401;42.016;21.454;2023-09-19T08:21:57;13.07;;;8.33;;
62788;SDS011;66401;42.016;21.454;2023-09-19T08:24:24;12.20;;;6.83;;
62788;SDS011;66401;42.016;21.454;2023-09-19T08:26:53;13.57;;;8.20;;
62788;SDS011;66401;42.016;21.454;2023-09-19T08:29:19;13.57;;;8.50;;
62788;SDS011;66401;42.016;21.454;2023-09-19T08:31:45;9.13;;;7.37;;
62788;SDS011;66401;42.016;21.454;2023-09-19T08:34:14;9.97;;;7.93;;
62788;SDS011;66401;42.016;21.454;2023-09-19T08:36:40;10.50;;;7.67;;
62788;SDS011;66401;42.016;21.454;2023-09-19T08:39:08;11.53;;;7.10;;
62788;SDS011;66401;42.016;21.454;2023-09-19T08:41:34;10.93;;;7.13;;
62788;SDS011;66401;42.016;21.454;2023-09-19T08:44:00;9.47;;;7.10;;
62788;SDS011;66401;42.016;21.454;2023-09-19T08:46:27;8.40;;;7.03;;
62788;SDS011;66401;42.016;21.454;2023-09-19T08:49:06;10.03;;;7.70;;
62788;SDS011;66401;42.016;21.454;2023-09-19T08:56:58;10.53;;;7.67;;
62788;SDS011;66401;42.016;21.454;2023-09-19T08:59:33;11.33;;;6.90;;
62788;SDS011;66401;42.016;21.454;2023-09-19T09:02:00;9.43;;;7.70;;
62788;SDS011;66401;42.016;21.454;2023-09-19T09:04:26;12.23;;;7.93;;
62788;SDS011;66401;42.016;21.454;2023-09-19T09:06:53;10.73;;;7.70;;
62788;SDS011;66401;42.016;21.454;2023-09-19T09:09:20;11.37;;;7.50;;
62788;SDS011;66401;42.016;21.454;2023-09-19T09:11:46;13.13;;;7.40;;
62788;SDS011;66401;42.016;21.454;2023-09-19T09:14:15;10.50;;;7.63;;
62788;SDS011;66401;42.016;21.454;2023-09-19T09:16:41;9.73;;;7.17;;
62788;SDS011;66401;42.016;21.454;2023-09-19T09:19:06;12.50;;;7.57;;
62788;SDS011;66401;42.016;21.454;2023-09-19T09:21:32;9.87;;;7.30;;
62788;SDS011;66401;42.016;21.454;2023-09-19T09:26:52;12.83;;;7.77;;
62788;SDS011;66401;42.016;21.454;2023-09-19T09:29:26;12.03;;;8.03;;
62788;SDS011;66401;42.016;21.454;2023-09-19T09:32:20;12.00;;;8.03;;
62788;SDS011;66401;42.016;21.454;2023-09-19T09:34:52;12.23;;;9.10;;
62788;SDS011;66401;42.016;21.454;2023-09-19T09:37:19;9.63;;;7.60;;
62788;SDS011;66401;42.016;21.454;2023-09-19T09:39:53;13.50;;;7.70;;
62788;SDS011;66401;42.016;21.454;2023-09-19T09:42:36;8.47;;;7.53;;
62788;SDS011;66401;42.016;21.454;2023-09-19T09:47:59;9.37;;;7.17;;
62788;SDS011;66401;42.016;21.454;2023-09-19T09:50:35;9.40;;;7.37;;
62788;SDS011;66401;42.016;21.454;2023-09-19T09:53:24;8.97;;;7.07;;
62788;SDS011;66401;42.016;21.454;2023-09-19T09:56:09;7.87;;;6.30;;
62788;SDS011;66401;42.016;21.454;2023-09-19T09:58:37;8.65;;;6.72;;
62788;SDS011;66401;42.016;21.454;2023-09-19T10:01:14;7.82;;;6.63;;
62788;SDS011;66401;42.016;21.454;2023-09-19T10:03:41;9.02;;;7.22;;
62788;SDS011;66401;42.016;21.454;2023-09-19T10:06:16;9.80;;;7.32;;
62788;SDS011;66401;42.016;21.454;2023-09-19T10:08:57;7.72;;;6.55;;
62788;SDS011;66401;42.016;21.454;2023-09-19T10:11:40;6.47;;;5.80;;
62788;SDS011;66401;42.016;21.454;2023-09-19T10:14:13;9.88;;;6.28;;
62788;SDS011;66401;42.016;21.454;2023-09-19T10:16:47;9.82;;;7.25;;
62788;SDS011;66401;42.016;21.454;2023-09-19T10:19:56;11.90;;;7.05;;
62788;SDS011;66401;42.016;21.454;2023-09-19T10:22:11;8.05;;;7.00;;
62788;SDS011;66401;42.016;21.454;2023-09-19T10:24:45;9.17;;;7.17;;
62788;SDS011;66401;42.016;21.454;2023-09-19T10:27:12;10.40;;;7.57;;
62788;SDS011;66401;42.016;21.454;2023-09-19T10:29:44;9.40;;;7.10;;
62788;SDS011;66401;42.016;21.454;2023-09-19T10:32:14;8.93;;;7.60;;
62788;SDS011;66401;42.016;21.454;2023-09-19T10:34:44;10.30;;;7.33;;
62788;SDS011;66401;42.016;21.454;2023-09-19T10:37:12;8.87;;;7.90;;
62788;SDS011;66401;42.016;21.454;2023-09-19T10:39:39;12.93;;;8.43;;
62788;SDS011;66401;42.016;21.454;2023-09-19T10:42:05;10.27;;;7.67;;
62788;SDS011;66401;42.016;21.454;2023-09-19T10:44:33;8.30;;;7.03;;
62788;SDS011;66401;42.016;21.454;2023-09-19T10:47:08;10.33;;;8.23;;
62788;SDS011;66401;42.016;21.454;2023-09-19T10:49:35;8.27;;;7.40;;
62788;SDS011;66401;42.016;21.454;2023-09-19T10:52:00;12.07;;;8.03;;
62788;SDS011;66401;42.016;21.454;2023-09-19T10:54:29;13.33;;;8.37;;
62788;SDS011;66401;42.016;21.454;2023-09-19T10:56:59;11.43;;;7.17;;
62788;SDS011;66401;42.016;21.454;2023-09-19T10:59:25;12.07;;;8.30;;
62788;SDS011;66401;42.016;21.454;2023-09-19T11:01:59;13.93;;;7.90;;
62788;SDS011;66401;42.016;21.454;2023-09-19T11:04:40;9.77;;;7.33;;
62788;SDS011;66401;42.016;21.454;2023-09-19T11:07:06;12.40;;;7.18;;
62788;SDS011;66401;42.016;21.454;2023-09-19T11:09:52;9.90;;;7.63;;
62788;SDS011;66401;42.016;21.454;2023-09-19T11:15:08;7.90;;;7.15;;
62788;SDS011;66401;42.016;21.454;2023-09-19T11:17:36;8.85;;;7.78;;
62788;SDS011;66401;42.016;21.454;2023-09-19T11:30:33;10.32;;;7.13;;
62788;SDS011;66401;42.016;21.454;2023-09-19T11:36:08;9.95;;;6.72;;
62788;SDS011;66401;42.016;21.454;2023-09-19T11:43:50;7.05;;;6.35;;
62788;SDS011;66401;42.016;21.454;2023-09-19T11:46:24;7.38;;;6.68;;
62788;SDS011;66401;42.016;21.454;2023-09-19T11:48:52;8.15;;;6.80;;
62788;SDS011;66401;42.016;21.454;2023-09-19T11:51:19;8.32;;;6.88;;
62788;SDS011;66401;42.016;21.454;2023-09-19T11:53:52;8.77;;;7.13;;
62788;SDS011;66401;42.016;21.454;2023-09-19T11:56:19;10.23;;;7.63;;
62788;SDS011;66401;42.016;21.454;2023-09-19T11:58:56;8.48;;;6.88;;
62788;SDS011;66401;42.016;21.454;2023-09-19T12:01:27;10.35;;;7.30;;
62788;SDS011;66401;42.016;21.454;2023-09-19T12:03:59;7.93;;;6.97;;
62788;SDS011;66401;42.016;21.454;2023-09-19T12:06:27;9.07;;;7.00;;
62788;SDS011;66401;42.016;21.454;2023-09-19T12:09:01;10.95;;;7.00;;
62788;SDS011;66401;42.016;21.454;2023-09-19T12:11:32;8.77;;;6.53;;
62788;SDS011;66401;42.016;21.454;2023-09-19T12:14:01;7.93;;;6.10;;
62788;SDS011;66401;42.016;21.454;2023-09-19T12:16:27;10.17;;;7.10;;
62788;SDS011;66401;42.016;21.454;2023-09-19T12:18:56;7.73;;;6.97;;
62788;SDS011;66401;42.016;21.454;2023-09-19T12:21:27;9.03;;;7.10;;
62788;SDS011;66401;42.016;21.454;2023-09-19T12:26:37;7.77;;;5.87;;
62788;SDS011;66401;42.016;21.454;2023-09-19T12:29:11;7.43;;;6.63;;
62788;SDS011;66401;42.016;21.454;2023-09-19T12:34:22;7.20;;;6.47;;
62788;SDS011;66401;42.016;21.454;2023-09-19T12:37:13;8.27;;;6.20;;
62788;SDS011;66401;42.016;21.454;2023-09-19T12:39:47;8.77;;;6.43;;
62788;SDS011;66401;42.016;21.454;2023-09-19T12:42:21;8.17;;;6.37;;
62788;SDS011;66401;42.016;21.454;2023-09-19T12:44:49;6.60;;;6.00;;
62788;SDS011;66401;42.016;21.454;2023-09-19T12:47:20;8.63;;;6.90;;
62788;SDS011;66401;42.016;21.454;2023-09-19T12:52:40;6.67;;;6.07;;
62788;SDS011;66401;42.016;21.454;2023-09-19T12:55:16;7.00;;;6.33;;
62788;SDS011;66401;42.016;21.454;2023-09-19T12:57:55;7.10;;;6.40;;
62788;SDS011;66401;42.016;21.454;2023-09-19T13:00:44;7.17;;;6.50;;
62788;SDS011;66401;42.016;21.454;2023-09-19T13:03:11;7.27;;;6.57;;
62788;SDS011;66401;42.016;21.454;2023-09-19T13:06:13;7.70;;;6.90;;
62788;SDS011;66401;42.016;21.454;2023-09-19T13:08:35;6.37;;;5.77;;
62788;SDS011;66401;42.016;21.454;2023-09-19T13:11:12;6.97;;;6.30;;
62788;SDS011;66401;42.016;21.454;2023-09-19T13:16:10;8.43;;;6.87;;
62788;SDS011;66401;42.016;21.454;2023-09-19T13:18:47;7.03;;;6.30;;
62788;SDS011;66401;42.016;21.454;2023-09-19T13:21:16;7.93;;;6.10;;
62788;SDS011;66401;42.016;21.454;2023-09-19T13:23:51;7.40;;;6.03;;
62788;SDS011;66401;42.016;21.454;2023-09-19T13:26:21;8.03;;;6.43;;
62788;SDS011;66401;42.016;21.454;2023-09-19T13:28:47;10.87;;;7.03;;
62788;SDS011;66401;42.016;21.454;2023-09-19T13:31:14;9.80;;;6.23;;
62788;SDS011;66401;42.016;21.454;2023-09-19T13:33:43;11.73;;;6.63;;
62788;SDS011;66401;42.016;21.454;2023-09-19T13:36:10;8.83;;;6.90;;
62788;SDS011;66401;42.016;21.454;2023-09-19T13:38:37;10.00;;;6.97;;
62788;SDS011;66401;42.016;21.454;2023-09-19T13:41:02;7.73;;;6.70;;
62788;SDS011;66401;42.016;21.454;2023-09-19T13:43:28;7.53;;;6.10;;
62788;SDS011;66401;42.016;21.454;2023-09-19T13:45:54;6.80;;;6.20;;
62788;SDS011;66401;42.016;21.454;2023-09-19T13:48:20;6.83;;;6.13;;
62788;SDS011;66401;42.016;21.454;2023-09-19T13:50:48;9.00;;;6.03;;
62788;SDS011;66401;42.016;21.454;2023-09-19T13:53:14;11.27;;;7.03;;
62788;SDS011;66401;42.016;21.454;2023-09-19T13:55:40;7.93;;;6.00;;
62788;SDS011;66401;42.016;21.454;2023-09-19T13:58:06;7.20;;;6.50;;
62788;SDS011;66401;42.016;21.454;2023-09-19T14:00:32;7.13;;;6.00;;
62788;SDS011;66401;42.016;21.454;2023-09-19T14:03:02;9.10;;;6.27;;
62788;SDS011;66401;42.016;21.454;2023-09-19T14:05:29;8.13;;;6.43;;
62788;SDS011;66401;42.016;21.454;2023-09-19T14:07:55;9.30;;;6.40;;
62788;SDS011;66401;42.016;21.454;2023-09-19T14:10:21;9.63;;;6.40;;
62788;SDS011;66401;42.016;21.454;2023-09-19T14:12:46;7.67;;;5.80;;
62788;SDS011;66401;42.016;21.454;2023-09-19T14:15:13;7.90;;;6.53;;
62788;SDS011;66401;42.016;21.454;2023-09-19T14:17:39;6.73;;;6.03;;
62788;SDS011;66401;42.016;21.454;2023-09-19T14:20:07;9.10;;;6.00;;
62788;SDS011;66401;42.016;21.454;2023-09-19T14:22:35;7.27;;;6.30;;
62788;SDS011;66401;42.016;21.454;2023-09-19T14:25:02;9.00;;;6.63;;
62788;SDS011;66401;42.016;21.454;2023-09-19T14:27:29;9.77;;;6.73;;
62788;SDS011;66401;42.016;21.454;2023-09-19T14:29:54;7.20;;;6.47;;
62788;SDS011;66401;42.016;21.454;2023-09-19T14:32:21;8.33;;;7.33;;
62788;SDS011;66401;42.016;21.454;2023-09-19T14:34:47;8.67;;;6.30;;
62788;SDS011;66401;42.016;21.454;2023-09-19T14:37:13;7.27;;;6.50;;
62788;SDS011;66401;42.016;21.454;2023-09-19T14:39:39;9.77;;;6.80;;
62788;SDS011;66401;42.016;21.454;2023-09-19T14:42:07;10.83;;;7.63;;
62788;SDS011;66401;42.016;21.454;2023-09-19T14:44:34;9.33;;;7.03;;
62788;SDS011;66401;42.016;21.454;2023-09-19T14:47:00;8.97;;;6.77;;
62788;SDS011;66401;42.016;21.454;2023-09-19T14:49:25;9.03;;;7.40;;
62788;SDS011;66401;42.016;21.454;2023-09-19T14:51:51;8.30;;;7.40;;
62788;SDS011;66401;42.016;21.454;2023-09-19T14:54:17;8.13;;;7.43;;
62788;SDS011;66401;42.016;21.454;2023-09-19T14:56:44;11.53;;;8.50;;
62788;SDS011;66401;42.016;21.454;2023-09-19T14:59:10;11.03;;;9.53;;
62788;SDS011;66401;42.016;21.454;2023-09-19T15:01:40;12.83;;;10.27;;
62788;SDS011;66401;42.016;21.454;2023-09-19T15:04:07;12.80;;;10.63;;
62788;SDS011;66401;42.016;21.454;2023-09-19T15:06:32;15.23;;;10.80;;
62788;SDS011;66401;42.016;21.454;2023-09-19T15:08:59;12.43;;;11.13;;
62788;SDS011;66401;42.016;21.454;2023-09-19T15:11:24;13.87;;;10.03;;
62788;SDS011;66401;42.016;21.454;2023-09-19T15:13:50;14.37;;;10.20;;
62788;SDS011;66401;42.016;21.454;2023-09-19T15:16:16;12.10;;;10.37;;
62788;SDS011;66401;42.016;21.454;2023-09-19T15:18:43;11.83;;;9.60;;
62788;SDS011;66401;42.016;21.454;2023-09-19T15:21:11;12.93;;;9.73;;
62788;SDS011;66401;42.016;21.454;2023-09-19T15:23:38;11.60;;;9.20;;
62788;SDS011;66401;42.016;21.454;2023-09-19T15:26:04;14.77;;;9.03;;
62788;SDS011;66401;42.016;21.454;2023-09-19T15:28:31;13.40;;;9.53;;
62788;SDS011;66401;42.016;21.454;2023-09-19T15:31:08;10.77;;;8.10;;